CYHY

Hay River / Merlyn Carter Airport

Hay River, Northwest Territories, Canada
METAR CYHY 221737Z 33003KT 5/8SM -SN VV017 M04/M05 A3008 RMK SN8 SLP201
Observed Flight Rules
Apr-22 @ 17:37 UTC (31 minutes ago) Instrument Flight Rules
Wind Visibility Clouds Conditions
330° at 3 knots 1/63 miles
  • Vertical visibility at 1,700' AGL
  • Light Snow
Temperatures Readings
Current -4°C / 25°F
Dewpoint -5°C / 23°F
Humidity 93%
Altimeter 30.08" Hg
Pressure 1020.1 hPa
Elevation 166
METAR CYHY 221737Z 33003KT 5/8SM -SN VV017 M04/M05 A3008 RMK SN8 SLP201
Observed Flight Rules
Apr-22 @ 17:37 UTC
(31 minutes ago)
LIFR
Wind Visibility
330° at 3 knots 1/63 miles
Clouds
  • Vertical visibility at 1,700' AGL
Conditions
  • Light Snow
Temperature Dewpoint
-4°C / 25°F -5°C / 23°F
Humidity Altimeter Pressure
93% 30.08" Hg 1020.1 hPa